sensor_id;sensor_type;location;lat;lon;timestamp;P1;durP1;ratioP1;P2;durP2;ratioP2
4206;SDS011;2117;47.972;7.830;2023-06-14T01:02:49;7.77;;;4.53;;
4206;SDS011;2117;47.972;7.830;2023-06-14T01:05:14;5.10;;;3.90;;
4206;SDS011;2117;47.972;7.830;2023-06-14T01:13:15;5.67;;;4.23;;
4206;SDS011;2117;47.972;7.830;2023-06-14T01:15:47;6.47;;;4.20;;
4206;SDS011;2117;47.972;7.830;2023-06-14T01:18:13;6.87;;;4.70;;
4206;SDS011;2117;47.972;7.830;2023-06-14T01:20:45;5.00;;;4.17;;
4206;SDS011;2117;47.972;7.830;2023-06-14T01:23:18;6.50;;;4.37;;
4206;SDS011;2117;47.972;7.830;2023-06-14T01:25:45;8.50;;;4.30;;
4206;SDS011;2117;47.972;7.830;2023-06-14T01:28:12;5.53;;;3.80;;
4206;SDS011;2117;47.972;7.830;2023-06-14T01:30:41;6.00;;;3.80;;
4206;SDS011;2117;47.972;7.830;2023-06-14T01:33:13;11.93;;;4.30;;
4206;SDS011;2117;47.972;7.830;2023-06-14T01:35:44;6.33;;;4.17;;
4206;SDS011;2117;47.972;7.830;2023-06-14T01:38:13;5.27;;;3.97;;
4206;SDS011;2117;47.972;7.830;2023-06-14T01:40:39;5.43;;;3.63;;
4206;SDS011;2117;47.972;7.830;2023-06-14T01:43:07;12.40;;;4.00;;
4206;SDS011;2117;47.972;7.830;2023-06-14T01:45:34;7.00;;;4.57;;
4206;SDS011;2117;47.972;7.830;2023-06-14T01:48:01;6.63;;;4.63;;
4206;SDS011;2117;47.972;7.830;2023-06-14T01:50:28;5.30;;;4.23;;
4206;SDS011;2117;47.972;7.830;2023-06-14T01:52:55;7.93;;;3.83;;
4206;SDS011;2117;47.972;7.830;2023-06-14T01:55:20;8.20;;;3.30;;
4206;SDS011;2117;47.972;7.830;2023-06-14T01:57:46;4.80;;;3.73;;
4206;SDS011;2117;47.972;7.830;2023-06-14T02:00:13;4.97;;;3.80;;
4206;SDS011;2117;47.972;7.830;2023-06-14T02:02:39;5.77;;;4.03;;
4206;SDS011;2117;47.972;7.830;2023-06-14T02:05:05;7.83;;;4.23;;
4206;SDS011;2117;47.972;7.830;2023-06-14T02:07:31;7.43;;;4.00;;
4206;SDS011;2117;47.972;7.830;2023-06-14T02:09:57;5.53;;;3.53;;
4206;SDS011;2117;47.972;7.830;2023-06-14T02:12:22;7.00;;;4.87;;
4206;SDS011;2117;47.972;7.830;2023-06-14T02:14:48;5.73;;;4.20;;
4206;SDS011;2117;47.972;7.830;2023-06-14T02:17:14;6.23;;;4.33;;
4206;SDS011;2117;47.972;7.830;2023-06-14T02:19:40;6.80;;;4.17;;
4206;SDS011;2117;47.972;7.830;2023-06-14T02:22:05;6.40;;;3.93;;
4206;SDS011;2117;47.972;7.830;2023-06-14T02:24:31;11.70;;;4.63;;
4206;SDS011;2117;47.972;7.830;2023-06-14T02:26:57;5.80;;;4.33;;
4206;SDS011;2117;47.972;7.830;2023-06-14T02:29:22;5.03;;;4.03;;
4206;SDS011;2117;47.972;7.830;2023-06-14T02:31:48;5.20;;;3.40;;
4206;SDS011;2117;47.972;7.830;2023-06-14T02:34:14;5.90;;;4.07;;
4206;SDS011;2117;47.972;7.830;2023-06-14T02:36:42;5.47;;;3.80;;
4206;SDS011;2117;47.972;7.830;2023-06-14T02:39:08;4.97;;;3.73;;
4206;SDS011;2117;47.972;7.830;2023-06-14T02:41:37;4.47;;;3.47;;
4206;SDS011;2117;47.972;7.830;2023-06-14T02:44:02;5.50;;;4.07;;
4206;SDS011;2117;47.972;7.830;2023-06-14T02:46:28;10.77;;;4.80;;
4206;SDS011;2117;47.972;7.830;2023-06-14T02:48:54;6.57;;;4.57;;
4206;SDS011;2117;47.972;7.830;2023-06-14T02:51:19;4.70;;;3.67;;
4206;SDS011;2117;47.972;7.830;2023-06-14T02:53:45;5.23;;;4.00;;
4206;SDS011;2117;47.972;7.830;2023-06-14T02:56:10;7.10;;;5.00;;
4206;SDS011;2117;47.972;7.830;2023-06-14T02:58:37;5.07;;;3.63;;
4206;SDS011;2117;47.972;7.830;2023-06-14T03:01:04;3.83;;;3.20;;
4206;SDS011;2117;47.972;7.830;2023-06-14T03:03:30;5.53;;;4.10;;
4206;SDS011;2117;47.972;7.830;2023-06-14T03:05:56;6.40;;;3.50;;
4206;SDS011;2117;47.972;7.830;2023-06-14T03:08:22;7.10;;;4.30;;
4206;SDS011;2117;47.972;7.830;2023-06-14T03:10:52;5.40;;;3.93;;
4206;SDS011;2117;47.972;7.830;2023-06-14T03:13:18;5.50;;;3.60;;
4206;SDS011;2117;47.972;7.830;2023-06-14T03:15:47;6.47;;;4.20;;
4206;SDS011;2117;47.972;7.830;2023-06-14T03:18:15;5.67;;;4.17;;
4206;SDS011;2117;47.972;7.830;2023-06-14T03:20:44;6.27;;;4.00;;
4206;SDS011;2117;47.972;7.830;2023-06-14T03:23:10;4.73;;;4.00;;
4206;SDS011;2117;47.972;7.830;2023-06-14T03:25:37;6.20;;;4.00;;
4206;SDS011;2117;47.972;7.830;2023-06-14T03:28:04;4.77;;;3.80;;
4206;SDS011;2117;47.972;7.830;2023-06-14T03:30:30;5.93;;;4.37;;
4206;SDS011;2117;47.972;7.830;2023-06-14T03:32:56;7.00;;;4.17;;
4206;SDS011;2117;47.972;7.830;2023-06-14T03:35:23;6.13;;;3.93;;
4206;SDS011;2117;47.972;7.830;2023-06-14T03:37:49;8.63;;;3.80;;
4206;SDS011;2117;47.972;7.830;2023-06-14T03:40:15;6.30;;;4.10;;
4206;SDS011;2117;47.972;7.830;2023-06-14T03:42:42;6.97;;;3.83;;
4206;SDS011;2117;47.972;7.830;2023-06-14T03:45:08;6.07;;;4.40;;
4206;SDS011;2117;47.972;7.830;2023-06-14T03:47:34;4.53;;;3.07;;
4206;SDS011;2117;47.972;7.830;2023-06-14T03:50:00;6.93;;;3.73;;
4206;SDS011;2117;47.972;7.830;2023-06-14T03:52:27;5.83;;;4.60;;
4206;SDS011;2117;47.972;7.830;2023-06-14T03:54:53;8.73;;;4.30;;
4206;SDS011;2117;47.972;7.830;2023-06-14T03:57:18;9.00;;;4.30;;
4206;SDS011;2117;47.972;7.830;2023-06-14T03:59:47;6.67;;;3.50;;
4206;SDS011;2117;47.972;7.830;2023-06-14T04:02:13;7.13;;;3.90;;
4206;SDS011;2117;47.972;7.830;2023-06-14T04:04:42;4.73;;;3.60;;
4206;SDS011;2117;47.972;7.830;2023-06-14T04:07:13;5.10;;;3.40;;
4206;SDS011;2117;47.972;7.830;2023-06-14T04:09:40;6.90;;;3.40;;
4206;SDS011;2117;47.972;7.830;2023-06-14T04:12:06;6.33;;;3.97;;
4206;SDS011;2117;47.972;7.830;2023-06-14T04:14:33;5.10;;;3.77;;
4206;SDS011;2117;47.972;7.830;2023-06-14T04:16:59;4.73;;;3.03;;
4206;SDS011;2117;47.972;7.830;2023-06-14T04:19:25;6.60;;;4.13;;
4206;SDS011;2117;47.972;7.830;2023-06-14T04:21:51;5.93;;;4.30;;
4206;SDS011;2117;47.972;7.830;2023-06-14T04:24:17;5.20;;;4.07;;
4206;SDS011;2117;47.972;7.830;2023-06-14T04:26:43;5.27;;;3.73;;
4206;SDS011;2117;47.972;7.830;2023-06-14T04:29:13;7.13;;;4.13;;
4206;SDS011;2117;47.972;7.830;2023-06-14T04:31:41;5.60;;;3.93;;
4206;SDS011;2117;47.972;7.830;2023-06-14T04:34:11;4.67;;;3.67;;
4206;SDS011;2117;47.972;7.830;2023-06-14T04:36:41;6.80;;;3.63;;
4206;SDS011;2117;47.972;7.830;2023-06-14T04:39:14;7.07;;;4.33;;
4206;SDS011;2117;47.972;7.830;2023-06-14T04:41:40;4.80;;;3.77;;
4206;SDS011;2117;47.972;7.830;2023-06-14T04:44:06;7.90;;;4.30;;
4206;SDS011;2117;47.972;7.830;2023-06-14T04:46:32;9.57;;;4.27;;
4206;SDS011;2117;47.972;7.830;2023-06-14T04:48:58;4.23;;;3.40;;
4206;SDS011;2117;47.972;7.830;2023-06-14T04:51:27;8.10;;;4.47;;
4206;SDS011;2117;47.972;7.830;2023-06-14T04:53:57;5.67;;;3.80;;
4206;SDS011;2117;47.972;7.830;2023-06-14T04:56:26;5.67;;;4.00;;
4206;SDS011;2117;47.972;7.830;2023-06-14T04:58:51;5.50;;;3.70;;
4206;SDS011;2117;47.972;7.830;2023-06-14T05:01:18;3.50;;;3.00;;
4206;SDS011;2117;47.972;7.830;2023-06-14T05:03:46;12.03;;;3.83;;
4206;SDS011;2117;47.972;7.830;2023-06-14T05:06:13;5.03;;;3.80;;
4206;SDS011;2117;47.972;7.830;2023-06-14T05:08:39;12.50;;;4.20;;
4206;SDS011;2117;47.972;7.830;2023-06-14T05:11:04;6.53;;;4.37;;
4206;SDS011;2117;47.972;7.830;2023-06-14T05:13:30;5.47;;;4.47;;
4206;SDS011;2117;47.972;7.830;2023-06-14T05:15:57;6.80;;;4.80;;
4206;SDS011;2117;47.972;7.830;2023-06-14T05:18:24;6.17;;;4.43;;
4206;SDS011;2117;47.972;7.830;2023-06-14T05:20:50;7.00;;;4.50;;
4206;SDS011;2117;47.972;7.830;2023-06-14T05:23:16;6.30;;;4.50;;
4206;SDS011;2117;47.972;7.830;2023-06-14T05:25:45;6.40;;;4.53;;
4206;SDS011;2117;47.972;7.830;2023-06-14T05:28:11;6.53;;;5.47;;
4206;SDS011;2117;47.972;7.830;2023-06-14T05:30:40;7.07;;;5.20;;
4206;SDS011;2117;47.972;7.830;2023-06-14T05:33:06;10.73;;;4.40;;
4206;SDS011;2117;47.972;7.830;2023-06-14T05:35:31;8.13;;;4.87;;
4206;SDS011;2117;47.972;7.830;2023-06-14T05:37:57;6.60;;;4.67;;
4206;SDS011;2117;47.972;7.830;2023-06-14T05:40:22;6.97;;;4.97;;
4206;SDS011;2117;47.972;7.830;2023-06-14T05:42:48;6.77;;;4.40;;
4206;SDS011;2117;47.972;7.830;2023-06-14T05:45:13;9.73;;;4.73;;
4206;SDS011;2117;47.972;7.830;2023-06-14T05:47:40;7.03;;;4.57;;
4206;SDS011;2117;47.972;7.830;2023-06-14T05:50:06;8.93;;;4.93;;
4206;SDS011;2117;47.972;7.830;2023-06-14T05:52:33;6.63;;;4.40;;
4206;SDS011;2117;47.972;7.830;2023-06-14T05:54:59;5.40;;;4.10;;
4206;SDS011;2117;47.972;7.830;2023-06-14T05:57:25;12.73;;;4.37;;
4206;SDS011;2117;47.972;7.830;2023-06-14T05:59:50;6.47;;;4.27;;
4206;SDS011;2117;47.972;7.830;2023-06-14T06:02:16;8.50;;;5.43;;
4206;SDS011;2117;47.972;7.830;2023-06-14T06:04:41;7.97;;;5.00;;
4206;SDS011;2117;47.972;7.830;2023-06-14T06:07:07;6.90;;;4.67;;
4206;SDS011;2117;47.972;7.830;2023-06-14T06:09:33;7.20;;;4.13;;
4206;SDS011;2117;47.972;7.830;2023-06-14T06:11:58;5.80;;;4.00;;
4206;SDS011;2117;47.972;7.830;2023-06-14T06:14:24;6.07;;;4.60;;
4206;SDS011;2117;47.972;7.830;2023-06-14T06:16:50;6.40;;;4.63;;
4206;SDS011;2117;47.972;7.830;2023-06-14T06:19:17;7.57;;;5.20;;
4206;SDS011;2117;47.972;7.830;2023-06-14T06:21:43;5.10;;;3.90;;
4206;SDS011;2117;47.972;7.830;2023-06-14T06:24:09;6.37;;;4.77;;
4206;SDS011;2117;47.972;7.830;2023-06-14T06:26:34;6.43;;;4.40;;
4206;SDS011;2117;47.972;7.830;2023-06-14T06:29:00;6.70;;;4.33;;
4206;SDS011;2117;47.972;7.830;2023-06-14T06:31:26;13.57;;;4.80;;
4206;SDS011;2117;47.972;7.830;2023-06-14T06:33:52;8.90;;;6.27;;
4206;SDS011;2117;47.972;7.830;2023-06-14T06:36:19;9.00;;;4.90;;
4206;SDS011;2117;47.972;7.830;2023-06-14T06:38:45;7.67;;;5.67;;
4206;SDS011;2117;47.972;7.830;2023-06-14T06:41:11;6.30;;;4.70;;
4206;SDS011;2117;47.972;7.830;2023-06-14T06:43:36;6.90;;;5.40;;
4206;SDS011;2117;47.972;7.830;2023-06-14T06:46:02;10.27;;;5.33;;
4206;SDS011;2117;47.972;7.830;2023-06-14T06:48:27;8.83;;;5.70;;
4206;SDS011;2117;47.972;7.830;2023-06-14T06:50:54;7.83;;;5.40;;
4206;SDS011;2117;47.972;7.830;2023-06-14T06:53:20;12.10;;;5.40;;
4206;SDS011;2117;47.972;7.830;2023-06-14T06:55:45;9.40;;;5.70;;
4206;SDS011;2117;47.972;7.830;2023-06-14T06:58:13;9.77;;;5.80;;
4206;SDS011;2117;47.972;7.830;2023-06-14T07:00:39;10.20;;;5.70;;
4206;SDS011;2117;47.972;7.830;2023-06-14T07:03:05;7.87;;;5.73;;
4206;SDS011;2117;47.972;7.830;2023-06-14T07:05:30;7.57;;;5.33;;
4206;SDS011;2117;47.972;7.830;2023-06-14T07:07:56;7.43;;;6.00;;
4206;SDS011;2117;47.972;7.830;2023-06-14T07:10:22;8.23;;;5.37;;
4206;SDS011;2117;47.972;7.830;2023-06-14T07:12:49;9.80;;;5.33;;
4206;SDS011;2117;47.972;7.830;2023-06-14T07:15:15;11.30;;;5.90;;
4206;SDS011;2117;47.972;7.830;2023-06-14T07:17:41;8.30;;;5.63;;
4206;SDS011;2117;47.972;7.830;2023-06-14T07:20:07;11.90;;;5.70;;
4206;SDS011;2117;47.972;7.830;2023-06-14T07:22:36;7.50;;;5.57;;
4206;SDS011;2117;47.972;7.830;2023-06-14T07:25:03;10.17;;;5.67;;
4206;SDS011;2117;47.972;7.830;2023-06-14T07:27:28;10.23;;;5.77;;
4206;SDS011;2117;47.972;7.830;2023-06-14T07:29:54;13.03;;;5.87;;
4206;SDS011;2117;47.972;7.830;2023-06-14T07:32:19;9.27;;;5.90;;
4206;SDS011;2117;47.972;7.830;2023-06-14T07:34:45;6.77;;;5.00;;
4206;SDS011;2117;47.972;7.830;2023-06-14T07:37:10;8.20;;;5.53;;
4206;SDS011;2117;47.972;7.830;2023-06-14T07:39:36;8.57;;;5.50;;
4206;SDS011;2117;47.972;7.830;2023-06-14T07:42:02;7.07;;;5.37;;
4206;SDS011;2117;47.972;7.830;2023-06-14T07:44:29;11.67;;;6.10;;
4206;SDS011;2117;47.972;7.830;2023-06-14T07:46:56;15.60;;;6.40;;
4206;SDS011;2117;47.972;7.830;2023-06-14T07:49:24;10.80;;;4.93;;
4206;SDS011;2117;47.972;7.830;2023-06-14T07:51:50;7.97;;;5.60;;
4206;SDS011;2117;47.972;7.830;2023-06-14T07:54:15;12.63;;;5.97;;
4206;SDS011;2117;47.972;7.830;2023-06-14T07:56:41;11.37;;;5.93;;
4206;SDS011;2117;47.972;7.830;2023-06-14T07:59:07;8.00;;;5.80;;
4206;SDS011;2117;47.972;7.830;2023-06-14T08:01:32;11.83;;;5.90;;
4206;SDS011;2117;47.972;7.830;2023-06-14T08:03:58;11.13;;;5.70;;
4206;SDS011;2117;47.972;7.830;2023-06-14T08:06:24;7.70;;;5.60;;
4206;SDS011;2117;47.972;7.830;2023-06-14T08:08:50;7.87;;;6.27;;
4206;SDS011;2117;47.972;7.830;2023-06-14T08:11:15;8.67;;;6.03;;
4206;SDS011;2117;47.972;7.830;2023-06-14T08:13:41;7.50;;;5.70;;
4206;SDS011;2117;47.972;7.830;2023-06-14T08:16:06;9.50;;;6.03;;
4206;SDS011;2117;47.972;7.830;2023-06-14T08:18:32;7.20;;;6.30;;
4206;SDS011;2117;47.972;7.830;2023-06-14T08:20:57;11.40;;;5.83;;
4206;SDS011;2117;47.972;7.830;2023-06-14T08:23:23;7.20;;;5.20;;
4206;SDS011;2117;47.972;7.830;2023-06-14T08:25:48;8.47;;;5.90;;
4206;SDS011;2117;47.972;7.830;2023-06-14T08:28:14;7.00;;;6.07;;
4206;SDS011;2117;47.972;7.830;2023-06-14T08:30:41;17.70;;;6.03;;
4206;SDS011;2117;47.972;7.830;2023-06-14T08:33:07;9.57;;;6.53;;
4206;SDS011;2117;47.972;7.830;2023-06-14T08:35:33;7.93;;;5.73;;
4206;SDS011;2117;47.972;7.830;2023-06-14T08:38:02;8.60;;;6.13;;
4206;SDS011;2117;47.972;7.830;2023-06-14T08:40:28;6.93;;;5.90;;
4206;SDS011;2117;47.972;7.830;2023-06-14T08:42:55;8.37;;;6.40;;
4206;SDS011;2117;47.972;7.830;2023-06-14T08:45:21;7.73;;;6.50;;
4206;SDS011;2117;47.972;7.830;2023-06-14T08:47:48;11.70;;;6.83;;
4206;SDS011;2117;47.972;7.830;2023-06-14T08:50:19;6.80;;;5.90;;
4206;SDS011;2117;47.972;7.830;2023-06-14T08:52:49;10.57;;;6.43;;
4206;SDS011;2117;47.972;7.830;2023-06-14T08:55:18;11.30;;;6.33;;
4206;SDS011;2117;47.972;7.830;2023-06-14T08:57:46;10.57;;;6.40;;
4206;SDS011;2117;47.972;7.830;2023-06-14T09:00:14;12.07;;;6.47;;
4206;SDS011;2117;47.972;7.830;2023-06-14T09:02:40;7.90;;;6.40;;
4206;SDS011;2117;47.972;7.830;2023-06-14T09:05:08;11.33;;;7.07;;
4206;SDS011;2117;47.972;7.830;2023-06-14T09:07:35;7.90;;;6.13;;
4206;SDS011;2117;47.972;7.830;2023-06-14T09:10:10;9.23;;;6.63;;
4206;SDS011;2117;47.972;7.830;2023-06-14T09:12:38;13.50;;;6.70;;
4206;SDS011;2117;47.972;7.830;2023-06-14T09:15:05;10.00;;;6.43;;
4206;SDS011;2117;47.972;7.830;2023-06-14T09:17:33;7.07;;;5.80;;
4206;SDS011;2117;47.972;7.830;2023-06-14T09:20:00;10.17;;;6.43;;
4206;SDS011;2117;47.972;7.830;2023-06-14T09:22:29;8.27;;;6.47;;
4206;SDS011;2117;47.972;7.830;2023-06-14T09:24:55;11.93;;;6.07;;
4206;SDS011;2117;47.972;7.830;2023-06-14T09:27:20;9.40;;;6.03;;
4206;SDS011;2117;47.972;7.830;2023-06-14T09:29:46;12.40;;;6.13;;
4206;SDS011;2117;47.972;7.830;2023-06-14T09:32:11;11.40;;;6.70;;
4206;SDS011;2117;47.972;7.830;2023-06-14T09:34:37;14.90;;;6.23;;
4206;SDS011;2117;47.972;7.830;2023-06-14T09:37:02;14.50;;;6.70;;
4206;SDS011;2117;47.972;7.830;2023-06-14T09:39:28;9.07;;;5.63;;
4206;SDS011;2117;47.972;7.830;2023-06-14T09:41:54;15.70;;;6.40;;
4206;SDS011;2117;47.972;7.830;2023-06-14T09:44:19;10.40;;;6.20;;
4206;SDS011;2117;47.972;7.830;2023-06-14T09:46:46;7.50;;;6.10;;
4206;SDS011;2117;47.972;7.830;2023-06-14T09:49:13;8.50;;;6.27;;
4206;SDS011;2117;47.972;7.830;2023-06-14T09:51:45;7.03;;;5.57;;
4206;SDS011;2117;47.972;7.830;2023-06-14T09:54:18;19.43;;;6.77;;
4206;SDS011;2117;47.972;7.830;2023-06-14T09:56:47;7.97;;;5.40;;
4206;SDS011;2117;47.972;7.830;2023-06-14T09:59:16;10.33;;;6.80;;
4206;SDS011;2117;47.972;7.830;2023-06-14T10:01:46;8.80;;;6.40;;
4206;SDS011;2117;47.972;7.830;2023-06-14T10:04:13;14.27;;;7.97;;
4206;SDS011;2117;47.972;7.830;2023-06-14T10:06:41;22.27;;;9.00;;
4206;SDS011;2117;47.972;7.830;2023-06-14T10:09:11;14.00;;;7.33;;
4206;SDS011;2117;47.972;7.830;2023-06-14T10:11:37;10.50;;;7.10;;
4206;SDS011;2117;47.972;7.830;2023-06-14T10:14:09;19.60;;;7.10;;
4206;SDS011;2117;47.972;7.830;2023-06-14T10:16:45;10.67;;;6.60;;
4206;SDS011;2117;47.972;7.830;2023-06-14T10:19:27;11.93;;;6.40;;
4206;SDS011;2117;47.972;7.830;2023-06-14T10:22:13;8.40;;;6.50;;
4206;SDS011;2117;47.972;7.830;2023-06-14T10:24:55;8.87;;;6.13;;
4206;SDS011;2117;47.972;7.830;2023-06-14T10:27:21;7.40;;;6.30;;
4206;SDS011;2117;47.972;7.830;2023-06-14T10:32:25;12.83;;;6.73;;
4206;SDS011;2117;47.972;7.830;2023-06-14T10:35:00;11.73;;;6.93;;
4206;SDS011;2117;47.972;7.830;2023-06-14T10:37:29;13.50;;;6.73;;
4206;SDS011;2117;47.972;7.830;2023-06-14T10:39:55;14.70;;;6.53;;
4206;SDS011;2117;47.972;7.830;2023-06-14T10:42:21;9.30;;;6.43;;
4206;SDS011;2117;47.972;7.830;2023-06-14T10:44:57;12.00;;;6.50;;
4206;SDS011;2117;47.972;7.830;2023-06-14T10:52:33;14.03;;;7.60;;
4206;SDS011;2117;47.972;7.830;2023-06-14T10:55:01;9.67;;;7.30;;
4206;SDS011;2117;47.972;7.830;2023-06-14T10:57:48;11.50;;;7.30;;
4206;SDS011;2117;47.972;7.830;2023-06-14T11:00:24;12.37;;;7.30;;
4206;SDS011;2117;47.972;7.830;2023-06-14T11:05:49;9.80;;;7.03;;
4206;SDS011;2117;47.972;7.830;2023-06-14T11:11:05;8.70;;;7.17;;
4206;SDS011;2117;47.972;7.830;2023-06-14T11:13:32;9.97;;;6.60;;
4206;SDS011;2117;47.972;7.830;2023-06-14T11:15:59;9.20;;;7.23;;
4206;SDS011;2117;47.972;7.830;2023-06-14T11:18:24;9.50;;;6.80;;
4206;SDS011;2117;47.972;7.830;2023-06-14T11:20:52;7.47;;;6.40;;
4206;SDS011;2117;47.972;7.830;2023-06-14T11:23:18;13.83;;;7.80;;
4206;SDS011;2117;47.972;7.830;2023-06-14T11:25:43;7.80;;;7.00;;
4206;SDS011;2117;47.972;7.830;2023-06-14T11:28:14;9.50;;;8.10;;
4206;SDS011;2117;47.972;7.830;2023-06-14T11:30:39;11.60;;;6.90;;
4206;SDS011;2117;47.972;7.830;2023-06-14T11:33:09;7.73;;;6.70;;
4206;SDS011;2117;47.972;7.830;2023-06-14T11:35:35;9.10;;;6.70;;
4206;SDS011;2117;47.972;7.830;2023-06-14T11:38:01;15.60;;;7.80;;
4206;SDS011;2117;47.972;7.830;2023-06-14T11:40:27;9.27;;;6.70;;
4206;SDS011;2117;47.972;7.830;2023-06-14T11:43:00;8.83;;;6.20;;
4206;SDS011;2117;47.972;7.830;2023-06-14T11:45:27;10.35;;;7.43;;
4206;SDS011;2117;47.972;7.830;2023-06-14T11:47:54;10.02;;;7.68;;
4206;SDS011;2117;47.972;7.830;2023-06-14T11:50:24;10.40;;;7.68;;
4206;SDS011;2117;47.972;7.830;2023-06-14T11:52:56;8.80;;;7.03;;
4206;SDS011;2117;47.972;7.830;2023-06-14T11:55:25;9.65;;;6.97;;
4206;SDS011;2117;47.972;7.830;2023-06-14T11:57:51;9.80;;;7.43;;
4206;SDS011;2117;47.972;7.830;2023-06-14T12:00:19;9.18;;;6.97;;
4206;SDS011;2117;47.972;7.830;2023-06-14T12:02:52;8.23;;;6.90;;
4206;SDS011;2117;47.972;7.830;2023-06-14T12:05:20;13.32;;;7.95;;
4206;SDS011;2117;47.972;7.830;2023-06-14T12:07:46;9.43;;;6.78;;
4206;SDS011;2117;47.972;7.830;2023-06-14T12:10:14;9.07;;;6.85;;
4206;SDS011;2117;47.972;7.830;2023-06-14T12:12:40;8.40;;;7.60;;
4206;SDS011;2117;47.972;7.830;2023-06-14T12:15:07;18.05;;;8.40;;
4206;SDS011;2117;47.972;7.830;2023-06-14T12:17:34;10.10;;;7.72;;
4206;SDS011;2117;47.972;7.830;2023-06-14T12:20:08;10.00;;;8.20;;
4206;SDS011;2117;47.972;7.830;2023-06-14T12:22:36;15.15;;;8.60;;
4206;SDS011;2117;47.972;7.830;2023-06-14T12:25:02;15.07;;;7.10;;
4206;SDS011;2117;47.972;7.830;2023-06-14T12:27:29;9.80;;;7.13;;
4206;SDS011;2117;47.972;7.830;2023-06-14T12:30:01;10.05;;;7.30;;
4206;SDS011;2117;47.972;7.830;2023-06-14T12:32:28;9.48;;;7.38;;
4206;SDS011;2117;47.972;7.830;2023-06-14T12:34:54;9.13;;;7.13;;
4206;SDS011;2117;47.972;7.830;2023-06-14T12:37:20;8.52;;;7.63;;
4206;SDS011;2117;47.972;7.830;2023-06-14T12:39:46;7.28;;;6.43;;
4206;SDS011;2117;47.972;7.830;2023-06-14T12:42:12;14.40;;;7.60;;
4206;SDS011;2117;47.972;7.830;2023-06-14T12:44:39;11.18;;;7.65;;
4206;SDS011;2117;47.972;7.830;2023-06-14T12:47:06;7.90;;;7.10;;
4206;SDS011;2117;47.972;7.830;2023-06-14T12:49:32;7.20;;;6.50;;
4206;SDS011;2117;47.972;7.830;2023-06-14T12:51:58;8.05;;;7.30;;
4206;SDS011;2117;47.972;7.830;2023-06-14T12:54:23;18.02;;;7.70;;
4206;SDS011;2117;47.972;7.830;2023-06-14T12:56:50;8.50;;;7.63;;
4206;SDS011;2117;47.972;7.830;2023-06-14T12:59:16;8.32;;;6.85;;
4206;SDS011;2117;47.972;7.830;2023-06-14T13:01:43;14.05;;;7.90;;
4206;SDS011;2117;47.972;7.830;2023-06-14T13:04:09;8.18;;;7.30;;
4206;SDS011;2117;47.972;7.830;2023-06-14T13:06:35;14.88;;;7.15;;
4206;SDS011;2117;47.972;7.830;2023-06-14T13:09:01;9.18;;;6.50;;
4206;SDS011;2117;47.972;7.830;2023-06-14T13:11:28;8.27;;;6.85;;
4206;SDS011;2117;47.972;7.830;2023-06-14T13:13:55;9.45;;;7.40;;
4206;SDS011;2117;47.972;7.830;2023-06-14T13:16:20;7.22;;;6.55;;
4206;SDS011;2117;47.972;7.830;2023-06-14T13:18:46;9.80;;;6.38;;
4206;SDS011;2117;47.972;7.830;2023-06-14T13:21:12;8.48;;;7.10;;
4206;SDS011;2117;47.972;7.830;2023-06-14T13:23:38;9.55;;;7.25;;
4206;SDS011;2117;47.972;7.830;2023-06-14T13:26:03;8.60;;;7.60;;
4206;SDS011;2117;47.972;7.830;2023-06-14T13:28:29;11.50;;;7.65;;
4206;SDS011;2117;47.972;7.830;2023-06-14T13:30:56;8.13;;;7.25;;
4206;SDS011;2117;47.972;7.830;2023-06-14T13:33:22;9.63;;;6.68;;
4206;SDS011;2117;47.972;7.830;2023-06-14T13:35:49;9.80;;;8.00;;
4206;SDS011;2117;47.972;7.830;2023-06-14T13:38:14;11.30;;;8.07;;
4206;SDS011;2117;47.972;7.830;2023-06-14T13:40:40;9.32;;;6.95;;
4206;SDS011;2117;47.972;7.830;2023-06-14T13:43:06;10.02;;;7.32;;
4206;SDS011;2117;47.972;7.830;2023-06-14T13:45:31;9.57;;;7.43;;
4206;SDS011;2117;47.972;7.830;2023-06-14T13:47:57;12.85;;;8.55;;
4206;SDS011;2117;47.972;7.830;2023-06-14T13:50:22;8.27;;;6.78;;
4206;SDS011;2117;47.972;7.830;2023-06-14T13:52:48;12.65;;;7.57;;
4206;SDS011;2117;47.972;7.830;2023-06-14T13:55:13;10.38;;;7.13;;
4206;SDS011;2117;47.972;7.830;2023-06-14T13:57:39;7.93;;;6.95;;
4206;SDS011;2117;47.972;7.830;2023-06-14T14:00:05;8.30;;;7.60;;
4206;SDS011;2117;47.972;7.830;2023-06-14T14:02:31;8.60;;;7.45;;
4206;SDS011;2117;47.972;7.830;2023-06-14T14:04:57;8.23;;;7.00;;
4206;SDS011;2117;47.972;7.830;2023-06-14T14:07:22;10.43;;;7.78;;
4206;SDS011;2117;47.972;7.830;2023-06-14T14:09:48;8.30;;;7.15;;
4206;SDS011;2117;47.972;7.830;2023-06-14T14:12:14;8.65;;;7.07;;
4206;SDS011;2117;47.972;7.830;2023-06-14T14:14:39;11.82;;;7.13;;
4206;SDS011;2117;47.972;7.830;2023-06-14T14:17:05;11.60;;;7.25;;
4206;SDS011;2117;47.972;7.830;2023-06-14T14:19:31;9.18;;;7.07;;
4206;SDS011;2117;47.972;7.830;2023-06-14T14:21:57;11.68;;;7.38;;
4206;SDS011;2117;47.972;7.830;2023-06-14T14:24:23;8.27;;;7.43;;
4206;SDS011;2117;47.972;7.830;2023-06-14T14:26:48;8.18;;;7.38;;
4206;SDS011;2117;47.972;7.830;2023-06-14T14:29:15;13.82;;;8.15;;
4206;SDS011;2117;47.972;7.830;2023-06-14T14:31:41;7.28;;;6.50;;
4206;SDS011;2117;47.972;7.830;2023-06-14T14:34:07;12.50;;;7.35;;
4206;SDS011;2117;47.972;7.830;2023-06-14T14:36:33;9.07;;;7.00;;
4206;SDS011;2117;47.972;7.830;2023-06-14T14:39:01;8.32;;;7.53;;
4206;SDS011;2117;47.972;7.830;2023-06-14T14:41:27;7.90;;;6.88;;
4206;SDS011;2117;47.972;7.830;2023-06-14T14:43:52;8.60;;;6.72;;
4206;SDS011;2117;47.972;7.830;2023-06-14T14:46:18;9.32;;;7.28;;
4206;SDS011;2117;47.972;7.830;2023-06-14T14:48:44;11.13;;;8.13;;
4206;SDS011;2117;47.972;7.830;2023-06-14T14:51:09;8.00;;;7.25;;
4206;SDS011;2117;47.972;7.830;2023-06-14T14:53:35;13.18;;;7.25;;
4206;SDS011;2117;47.972;7.830;2023-06-14T14:56:01;11.77;;;6.78;;
4206;SDS011;2117;47.972;7.830;2023-06-14T14:58:26;10.02;;;7.38;;
4206;SDS011;2117;47.972;7.830;2023-06-14T15:00:52;8.10;;;7.20;;
4206;SDS011;2117;47.972;7.830;2023-06-14T15:03:17;8.15;;;7.45;;
4206;SDS011;2117;47.972;7.830;2023-06-14T15:05:43;8.73;;;7.63;;
4206;SDS011;2117;47.972;7.830;2023-06-14T15:08:08;8.50;;;7.07;;
4206;SDS011;2117;47.972;7.830;2023-06-14T15:10:37;13.43;;;7.10;;
4206;SDS011;2117;47.972;7.830;2023-06-14T15:13:08;13.68;;;7.95;;
4206;SDS011;2117;47.972;7.830;2023-06-14T15:15:34;10.40;;;6.57;;
4206;SDS011;2117;47.972;7.830;2023-06-14T15:18:00;9.20;;;7.07;;
4206;SDS011;2117;47.972;7.830;2023-06-14T15:20:26;10.25;;;8.05;;
4206;SDS011;2117;47.972;7.830;2023-06-14T15:22:52;11.57;;;7.43;;
4206;SDS011;2117;47.972;7.830;2023-06-14T15:25:20;8.82;;;7.43;;
4206;SDS011;2117;47.972;7.830;2023-06-14T15:27:46;13.60;;;7.45;;
4206;SDS011;2117;47.972;7.830;2023-06-14T15:30:12;10.13;;;7.57;;
4206;SDS011;2117;47.972;7.830;2023-06-14T15:32:38;12.50;;;7.25;;
4206;SDS011;2117;47.972;7.830;2023-06-14T15:35:04;8.27;;;7.30;;
4206;SDS011;2117;47.972;7.830;2023-06-14T15:37:30;10.93;;;8.38;;
4206;SDS011;2117;47.972;7.830;2023-06-14T15:39:56;8.50;;;7.60;;
4206;SDS011;2117;47.972;7.830;2023-06-14T15:42:21;7.70;;;6.90;;
4206;SDS011;2117;47.972;7.830;2023-06-14T15:44:47;13.25;;;7.70;;
4206;SDS011;2117;47.972;7.830;2023-06-14T15:47:13;15.10;;;6.82;;
4206;SDS011;2117;47.972;7.830;2023-06-14T15:49:39;11.75;;;7.82;;
4206;SDS011;2117;47.972;7.830;2023-06-14T15:52:04;8.15;;;7.35;;
4206;SDS011;2117;47.972;7.830;2023-06-14T15:54:31;10.90;;;7.30;;
4206;SDS011;2117;47.972;7.830;2023-06-14T15:56:57;7.82;;;7.03;;
4206;SDS011;2117;47.972;7.830;2023-06-14T15:59:23;16.60;;;7.20;;
4206;SDS011;2117;47.972;7.830;2023-06-14T16:01:49;12.27;;;7.43;;
4206;SDS011;2117;47.972;7.830;2023-06-14T16:04:14;16.55;;;7.75;;
4206;SDS011;2117;47.972;7.830;2023-06-14T16:06:40;8.02;;;7.22;;
4206;SDS011;2117;47.972;7.830;2023-06-14T16:09:05;13.95;;;7.40;;
4206;SDS011;2117;47.972;7.830;2023-06-14T16:11:31;10.25;;;6.88;;
4206;SDS011;2117;47.972;7.830;2023-06-14T16:13:57;8.63;;;7.75;;
4206;SDS011;2117;47.972;7.830;2023-06-14T16:16:22;11.57;;;7.70;;
4206;SDS011;2117;47.972;7.830;2023-06-14T16:18:48;9.00;;;7.28;;
4206;SDS011;2117;47.972;7.830;2023-06-14T16:21:14;9.88;;;6.80;;
4206;SDS011;2117;47.972;7.830;2023-06-14T16:23:40;10.95;;;7.35;;
4206;SDS011;2117;47.972;7.830;2023-06-14T16:26:09;16.48;;;7.45;;
4206;SDS011;2117;47.972;7.830;2023-06-14T16:28:35;16.03;;;7.67;;